createdAt,value
2022-12-14T00:02:06.711Z,60.00
2022-12-14T00:04:35.315Z,57.80
2022-12-14T00:07:03.868Z,52.63
2022-12-14T00:09:32.288Z,57.90
2022-12-14T00:12:00.526Z,51.77
2022-12-14T00:14:29.019Z,51.60
2022-12-14T00:16:58.763Z,51.40
2022-12-14T00:19:27.285Z,54.30
2022-12-14T00:21:56.241Z,56.67
2022-12-14T00:24:24.674Z,57.73
2022-12-14T00:26:53.378Z,57.70
2022-12-14T00:29:21.830Z,58.73
2022-12-14T00:31:52.263Z,60.07
2022-12-14T00:34:22.087Z,62.23
2022-12-14T00:36:50.471Z,59.57
2022-12-14T00:39:18.848Z,63.03
2022-12-14T00:41:47.265Z,58.43
2022-12-14T00:44:15.711Z,56.23
2022-12-14T00:46:44.004Z,56.03
2022-12-14T00:49:12.588Z,60.03
2022-12-14T00:51:42.220Z,54.47
2022-12-14T00:54:10.589Z,59.07
2022-12-14T00:56:38.997Z,55.73
2022-12-14T00:59:07.681Z,60.93
2022-12-14T01:01:36.847Z,61.20
2022-12-14T01:04:22.558Z,62.50
2022-12-14T01:06:53.373Z,55.03
2022-12-14T01:09:23.203Z,58.30
2022-12-14T01:11:53.187Z,60.60
2022-12-14T01:14:23.168Z,56.33
2022-12-14T01:16:51.593Z,62.10
2022-12-14T01:19:20.294Z,58.67
2022-12-14T01:21:48.595Z,56.17
2022-12-14T01:24:18.501Z,62.33
2022-12-14T01:26:46.963Z,58.17
2022-12-14T01:29:16.358Z,58.53
2022-12-14T01:31:44.904Z,53.93
2022-12-14T01:34:17.359Z,57.70
2022-12-14T01:36:45.878Z,55.17
2022-12-14T01:39:16.125Z,53.83
2022-12-14T01:41:49.670Z,63.60
2022-12-14T01:44:56.166Z,51.00
2022-12-14T01:47:37.727Z,57.27
2022-12-14T01:50:12.412Z,56.70
2022-12-14T01:52:44.659Z,54.13
2022-12-14T01:55:15.900Z,58.27
2022-12-14T01:57:50.105Z,53.60
2022-12-14T02:00:18.743Z,55.63
2022-12-14T02:02:52.240Z,54.87
2022-12-14T02:05:23.788Z,55.57
2022-12-14T02:07:54.106Z,55.37
2022-12-14T02:10:23.997Z,56.43
2022-12-14T02:12:59.792Z,54.10
2022-12-14T02:15:28.794Z,53.90
2022-12-14T02:17:58.039Z,53.23
2022-12-14T02:20:31.695Z,58.40
2022-12-14T02:23:45.163Z,54.33
2022-12-14T02:26:53.788Z,58.97
2022-12-14T02:29:51.524Z,52.70
2022-12-14T02:32:44.919Z,52.33
2022-12-14T02:35:18.582Z,47.50
2022-12-14T02:37:58.018Z,54.10
2022-12-14T02:40:35.074Z,59.60
2022-12-14T02:43:13.294Z,48.60
2022-12-14T02:45:45.272Z,47.80
2022-12-14T02:48:19.557Z,52.60
2022-12-14T02:50:54.958Z,51.60
2022-12-14T02:53:29.434Z,42.87
2022-12-14T02:56:03.231Z,54.47
2022-12-14T02:58:36.267Z,47.90
2022-12-14T03:01:05.904Z,49.17
2022-12-14T03:03:35.774Z,58.77
2022-12-14T03:06:14.789Z,57.03
2022-12-14T03:08:46.189Z,53.50
2022-12-14T03:11:19.696Z,56.33
2022-12-14T03:13:53.270Z,53.77
2022-12-14T03:16:24.521Z,57.00
2022-12-14T03:18:59.221Z,56.73
2022-12-14T03:21:32.036Z,59.43
2022-12-14T03:24:04.114Z,63.27
2022-12-14T03:26:36.022Z,65.67
2022-12-14T03:29:07.962Z,58.67
2022-12-14T03:31:43.084Z,58.73
2022-12-14T03:34:22.788Z,57.10
2022-12-14T03:36:55.204Z,52.03
2022-12-14T03:39:28.621Z,50.43
2022-12-14T03:42:04.972Z,54.87
2022-12-14T03:44:45.209Z,61.53
2022-12-14T03:47:29.911Z,55.47
2022-12-14T03:50:04.630Z,51.67
2022-12-14T03:52:37.356Z,47.70
2022-12-14T03:55:17.684Z,50.57
2022-12-14T03:58:01.007Z,46.00
2022-12-14T04:00:37.546Z,51.73
2022-12-14T04:03:17.657Z,51.47
2022-12-14T04:05:52.744Z,51.57
2022-12-14T04:08:29.807Z,51.53
2022-12-14T04:11:18.875Z,51.07
2022-12-14T04:14:15.053Z,44.77
2022-12-14T04:17:03.337Z,49.13
2022-12-14T04:19:36.874Z,52.27
2022-12-14T04:22:08.966Z,48.60
2022-12-14T04:24:59.230Z,48.87
2022-12-14T04:27:36.475Z,53.00
2022-12-14T04:30:05.776Z,50.70
2022-12-14T04:32:38.286Z,50.57
2022-12-14T04:35:13.526Z,55.07
2022-12-14T04:37:46.421Z,50.30
2022-12-14T04:40:22.761Z,48.47
2022-12-14T04:42:54.494Z,50.37
2022-12-14T04:45:28.504Z,52.57
2022-12-14T04:48:04.270Z,47.00
2022-12-14T04:50:36.616Z,51.10
2022-12-14T04:53:13.002Z,49.83
2022-12-14T04:55:47.388Z,50.53
2022-12-14T04:58:21.675Z,48.53
2022-12-14T05:01:04.612Z,53.53
2022-12-14T05:03:37.225Z,50.83
2022-12-14T05:06:10.195Z,55.00
2022-12-14T05:08:57.009Z,49.17
2022-12-14T05:11:52.501Z,46.23
2022-12-14T05:14:23.328Z,47.37
2022-12-14T05:16:51.868Z,49.90
2022-12-14T05:19:26.412Z,47.87
2022-12-14T05:21:56.073Z,53.47
2022-12-14T05:24:25.866Z,50.83
2022-12-14T05:26:54.285Z,46.23
2022-12-14T05:29:22.686Z,46.50
2022-12-14T05:31:52.130Z,47.83
2022-12-14T05:34:20.476Z,51.43
2022-12-14T05:36:48.783Z,51.77
2022-12-14T05:39:17.492Z,48.83
2022-12-14T05:41:47.348Z,49.87
2022-12-14T05:44:15.781Z,52.00
2022-12-14T05:46:44.171Z,52.50
2022-12-14T05:49:12.594Z,50.47
2022-12-14T05:51:41.697Z,50.57
2022-12-14T05:54:10.094Z,52.63
2022-12-14T05:56:38.578Z,52.67
2022-12-14T05:59:08.304Z,52.47
2022-12-14T06:01:36.760Z,60.37
2022-12-14T06:04:05.483Z,58.50
2022-12-14T06:06:35.057Z,57.83
2022-12-14T06:09:06.487Z,59.77
2022-12-14T06:11:37.892Z,54.90
2022-12-14T06:14:08.034Z,60.13
2022-12-14T06:16:37.335Z,60.17
2022-12-14T06:19:06.326Z,53.43
2022-12-14T06:21:36.480Z,56.30
2022-12-14T06:24:06.366Z,58.47
2022-12-14T06:26:37.486Z,63.90
2022-12-14T06:29:07.817Z,58.93
2022-12-14T06:31:38.229Z,70.57
2022-12-14T06:34:06.886Z,55.40
2022-12-14T06:36:37.128Z,59.80
2022-12-14T06:39:06.912Z,62.37
2022-12-14T06:41:35.701Z,64.97
2022-12-14T06:44:07.102Z,58.77
2022-12-14T06:46:38.144Z,70.07
2022-12-14T06:49:07.613Z,63.70
2022-12-14T06:51:40.603Z,71.23
2022-12-14T06:54:09.238Z,70.73
2022-12-14T06:56:40.714Z,66.70
2022-12-14T06:59:09.872Z,63.83
2022-12-14T07:01:40.814Z,64.90
2022-12-14T07:04:10.258Z,61.77
2022-12-14T07:06:40.357Z,64.40
2022-12-14T07:09:09.724Z,65.77
2022-12-14T07:11:38.434Z,66.83
2022-12-14T07:14:07.335Z,62.00
2022-12-14T07:16:37.012Z,72.77
2022-12-14T07:19:06.747Z,73.83
2022-12-14T07:21:35.308Z,72.57
2022-12-14T07:24:03.627Z,73.17
2022-12-14T07:26:32.037Z,69.93
2022-12-14T07:29:01.657Z,83.00
2022-12-14T07:31:30.751Z,71.57
2022-12-14T07:34:00.946Z,76.70
2022-12-14T07:36:33.071Z,72.97
2022-12-14T07:39:01.449Z,76.40
2022-12-14T07:41:31.901Z,76.63
2022-12-14T07:44:01.972Z,73.67
2022-12-14T07:46:32.306Z,75.47
2022-12-14T07:49:01.651Z,74.37
2022-12-14T07:51:33.507Z,66.73
2022-12-14T07:54:02.805Z,72.10
2022-12-14T07:56:32.859Z,78.67
2022-12-14T07:59:03.191Z,183.07
2022-12-14T08:01:33.695Z,248.20
2022-12-14T08:04:05.892Z,83.50
2022-12-14T08:06:36.836Z,85.90
2022-12-14T08:09:05.740Z,83.73
2022-12-14T08:11:34.374Z,86.23
2022-12-14T08:14:04.345Z,80.40
2022-12-14T08:16:34.086Z,79.87
2022-12-14T08:19:03.076Z,79.40
2022-12-14T08:21:31.935Z,90.90
2022-12-14T08:24:01.612Z,96.60
2022-12-14T08:26:35.166Z,87.70
2022-12-14T08:29:04.198Z,82.63
2022-12-14T08:31:33.607Z,81.50
2022-12-14T08:34:02.654Z,79.43
2022-12-14T08:36:34.175Z,90.27
2022-12-14T08:39:05.992Z,116.07
2022-12-14T08:41:35.121Z,127.97
2022-12-14T08:44:04.922Z,108.15
2022-12-14T08:46:34.792Z,106.43
2022-12-14T08:49:03.384Z,100.73
2022-12-14T08:51:32.055Z,97.20
2022-12-14T08:54:00.486Z,97.00
2022-12-14T08:56:30.429Z,90.00
2022-12-14T08:58:59.078Z,89.37
2022-12-14T09:01:33.518Z,80.00
2022-12-14T09:04:07.890Z,78.73
2022-12-14T09:06:38.570Z,85.03
2022-12-14T09:09:11.894Z,80.40
2022-12-14T09:11:45.944Z,82.33
2022-12-14T09:14:14.548Z,77.27
2022-12-14T09:16:43.059Z,75.33
2022-12-14T09:19:11.389Z,83.07
2022-12-14T09:21:39.971Z,78.00
2022-12-14T09:24:08.611Z,74.90
2022-12-14T09:26:37.240Z,82.57
2022-12-14T09:29:06.844Z,69.33
2022-12-14T09:31:35.298Z,98.63
2022-12-14T09:34:04.307Z,93.50
2022-12-14T09:36:32.783Z,76.77
2022-12-14T09:39:01.180Z,77.67
2022-12-14T09:41:39.878Z,69.03
2022-12-14T09:44:18.806Z,66.63
2022-12-14T09:46:56.058Z,71.03
2022-12-14T09:49:29.651Z,64.80
2022-12-14T09:52:01.356Z,62.57
2022-12-14T09:54:31.802Z,56.70
2022-12-14T09:57:05.705Z,62.30
2022-12-14T09:59:35.922Z,53.53
2022-12-14T10:02:33.160Z,47.20
2022-12-14T10:05:24.890Z,59.80
2022-12-14T10:08:02.967Z,60.07
2022-12-14T10:10:38.676Z,51.27
2022-12-14T10:13:16.792Z,60.40
2022-12-14T10:15:56.786Z,51.80
2022-12-14T10:21:28.205Z,61.20
2022-12-14T10:24:00.155Z,59.97
2022-12-14T10:26:33.482Z,54.40
2022-12-14T10:29:08.687Z,72.30
2022-12-14T10:31:45.840Z,55.73
2022-12-14T10:34:19.695Z,55.53
2022-12-14T10:36:56.550Z,53.23
2022-12-14T10:39:49.812Z,55.27
2022-12-14T10:42:25.243Z,56.83
2022-12-14T10:45:39.243Z,54.40
2022-12-14T10:48:07.187Z,54.13
2022-12-14T10:50:49.974Z,52.73
2022-12-14T10:53:23.895Z,53.67
2022-12-14T10:55:55.593Z,55.35
2022-12-14T10:58:24.059Z,55.00
2022-12-14T11:00:54.821Z,56.37
2022-12-14T11:03:24.831Z,53.83
2022-12-14T11:05:59.342Z,64.00
2022-12-14T11:08:42.560Z,66.83
2022-12-14T11:11:18.814Z,49.47
2022-12-14T11:13:55.924Z,50.23
2022-12-14T11:16:36.572Z,58.27
2022-12-14T11:19:16.083Z,56.93
2022-12-14T11:21:45.425Z,54.45
2022-12-14T11:24:26.097Z,52.97
2022-12-14T11:26:59.078Z,49.07
2022-12-14T11:29:32.351Z,53.50
2022-12-14T11:32:01.725Z,46.53
2022-12-14T11:34:37.860Z,53.53
2022-12-14T11:37:14.552Z,45.73
2022-12-14T11:39:44.339Z,47.27
2022-12-14T11:42:19.423Z,54.37
2022-12-14T11:44:49.671Z,48.77
2022-12-14T11:47:20.512Z,46.03
2022-12-14T11:49:51.696Z,50.17
2022-12-14T11:52:22.113Z,49.97
2022-12-14T11:55:10.951Z,51.33
2022-12-14T11:57:48.985Z,53.47
2022-12-14T12:00:26.151Z,48.57
2022-12-14T12:03:01.192Z,48.90
2022-12-14T12:05:33.582Z,45.80
2022-12-14T12:08:03.393Z,47.17
2022-12-14T12:10:38.935Z,47.73
2022-12-14T12:13:17.354Z,46.00
2022-12-14T12:15:51.961Z,43.43
2022-12-14T12:18:27.585Z,47.37
2022-12-14T12:21:02.616Z,43.07
2022-12-14T12:23:36.927Z,40.03
2022-12-14T12:26:13.379Z,43.00
2022-12-14T12:28:47.629Z,36.97
2022-12-14T12:31:23.431Z,37.27
2022-12-14T12:33:57.479Z,39.27
2022-12-14T12:36:27.630Z,44.20
2022-12-14T12:39:05.489Z,37.00
2022-12-14T12:41:42.899Z,39.47
2022-12-14T12:44:41.789Z,41.07
2022-12-14T12:47:32.314Z,41.57
2022-12-14T12:50:06.476Z,42.40
2022-12-14T12:52:48.274Z,39.77
2022-12-14T12:55:19.268Z,40.40
2022-12-14T12:57:50.382Z,34.60
2022-12-14T13:00:20.934Z,33.80
2022-12-14T13:02:54.049Z,33.20
2022-12-14T13:08:23.798Z,43.77
2022-12-14T13:13:46.675Z,32.77
2022-12-14T13:16:23.007Z,33.23
2022-12-14T13:19:04.900Z,43.67
2022-12-14T13:21:50.887Z,30.73
2022-12-14T13:24:22.856Z,37.33
2022-12-14T13:27:32.555Z,39.40
2022-12-14T13:30:20.660Z,34.50
2022-12-14T13:33:02.084Z,32.20
2022-12-14T13:35:47.973Z,34.37
2022-12-14T13:38:34.112Z,31.23
2022-12-14T13:41:25.598Z,37.10
2022-12-14T13:44:11.590Z,36.57
2022-12-14T13:46:40.260Z,32.20
2022-12-14T13:49:17.975Z,32.50
2022-12-14T13:51:50.349Z,33.93
2022-12-14T13:54:27.839Z,30.17
2022-12-14T13:57:06.490Z,28.67
2022-12-14T13:59:38.069Z,33.70
2022-12-14T14:02:08.183Z,27.33
2022-12-14T14:04:36.955Z,28.47
2022-12-14T14:07:39.400Z,29.93
2022-12-14T14:10:28.136Z,31.73
2022-12-14T14:12:57.913Z,30.37
2022-12-14T14:15:38.116Z,30.67
2022-12-14T14:18:15.480Z,32.07
2022-12-14T14:20:45.813Z,35.33
2022-12-14T14:23:38.406Z,30.00
2022-12-14T14:26:24.572Z,26.83
2022-12-14T14:29:19.334Z,30.57
2022-12-14T14:31:50.542Z,31.53
2022-12-14T14:34:23.399Z,39.10
2022-12-14T14:36:52.500Z,34.47
2022-12-14T14:42:25.456Z,33.03
2022-12-14T14:44:58.573Z,34.07
2022-12-14T14:47:30.134Z,42.37
2022-12-14T14:50:02.261Z,32.73
2022-12-14T14:52:55.223Z,33.87
2022-12-14T14:56:05.320Z,33.73
2022-12-14T14:58:36.172Z,36.13
2022-12-14T15:01:25.894Z,37.37
2022-12-14T15:03:57.717Z,33.43
2022-12-14T15:06:29.228Z,36.00
2022-12-14T15:09:06.381Z,36.33
2022-12-14T15:11:43.707Z,36.87
2022-12-14T15:14:35.538Z,38.57
2022-12-14T15:17:16.206Z,36.57
2022-12-14T15:19:49.361Z,37.77
2022-12-14T15:22:20.389Z,38.10
2022-12-14T15:24:52.142Z,33.57
2022-12-14T15:27:25.706Z,38.23
2022-12-14T15:29:55.667Z,37.00
2022-12-14T15:32:26.340Z,41.90
2022-12-14T15:34:57.092Z,38.93
2022-12-14T15:37:29.188Z,41.60
2022-12-14T15:40:07.142Z,37.93
2022-12-14T15:42:35.699Z,38.20
2022-12-14T15:45:11.285Z,39.87
2022-12-14T15:47:40.841Z,35.87
2022-12-14T15:50:16.769Z,38.10
2022-12-14T15:52:46.959Z,35.90
2022-12-14T15:55:35.189Z,41.67
2022-12-14T15:58:11.374Z,46.83
2022-12-14T16:00:43.820Z,38.70
2022-12-14T16:03:23.078Z,40.97
2022-12-14T16:05:52.131Z,41.77
2022-12-14T16:08:24.186Z,42.13
2022-12-14T16:10:54.777Z,42.97
2022-12-14T16:13:28.636Z,41.73
2022-12-14T16:15:59.076Z,48.97
2022-12-14T16:18:29.023Z,49.70
2022-12-14T16:20:59.592Z,48.80
2022-12-14T16:23:32.174Z,42.50
2022-12-14T16:26:03.168Z,43.00
2022-12-14T16:28:34.278Z,42.73
2022-12-14T16:31:06.135Z,45.47
2022-12-14T16:33:38.654Z,42.83
2022-12-14T16:36:09.486Z,43.53
2022-12-14T16:38:43.207Z,42.83
2022-12-14T16:41:11.785Z,49.27
2022-12-14T16:43:42.018Z,44.27
2022-12-14T16:46:18.630Z,44.30
2022-12-14T16:49:22.259Z,44.67
2022-12-14T16:52:07.365Z,44.77
2022-12-14T16:54:38.901Z,40.67
2022-12-14T16:57:09.869Z,39.50
2022-12-14T16:59:43.883Z,40.47
2022-12-14T17:02:30.363Z,43.77
2022-12-14T17:05:02.586Z,40.97
2022-12-14T17:07:33.160Z,46.83
2022-12-14T17:10:01.537Z,42.53
2022-12-14T17:12:30.311Z,43.53
2022-12-14T17:14:58.950Z,45.47
2022-12-14T17:17:33.668Z,41.67
2022-12-14T17:20:05.865Z,42.83
2022-12-14T17:22:37.784Z,49.93
2022-12-14T17:25:06.694Z,42.57
2022-12-14T17:27:35.000Z,45.03
2022-12-14T17:30:03.412Z,41.67
2022-12-14T17:32:31.939Z,44.70
2022-12-14T17:35:00.770Z,40.60
2022-12-14T17:37:36.481Z,46.23
2022-12-14T17:40:06.409Z,38.27
2022-12-14T17:42:35.897Z,34.57
2022-12-14T17:45:04.777Z,30.70
2022-12-14T17:47:33.231Z,34.97
2022-12-14T17:50:01.797Z,32.50
2022-12-14T17:52:33.189Z,34.23
2022-12-14T17:55:01.783Z,36.80
2022-12-14T17:57:30.240Z,35.87
2022-12-14T18:00:12.635Z,36.10
2022-12-14T18:02:42.126Z,31.87
2022-12-14T18:05:19.386Z,33.60
2022-12-14T18:07:49.755Z,32.60
2022-12-14T18:10:19.829Z,34.57
2022-12-14T18:12:48.680Z,34.07
2022-12-14T18:15:20.098Z,36.80
2022-12-14T18:17:49.333Z,34.60
2022-12-14T18:20:19.351Z,33.90
2022-12-14T18:22:50.349Z,35.80
2022-12-14T18:25:27.832Z,34.70
2022-12-14T18:27:56.433Z,34.00
2022-12-14T18:30:25.578Z,38.20
2022-12-14T18:32:55.236Z,41.33
2022-12-14T18:35:25.808Z,44.60
2022-12-14T18:37:55.866Z,64.43
2022-12-14T18:40:26.036Z,64.43
2022-12-14T18:42:55.168Z,63.53
2022-12-14T18:45:25.367Z,60.83
2022-12-14T18:47:54.153Z,57.27
2022-12-14T18:50:23.459Z,55.53
2022-12-14T18:52:52.372Z,55.17
2022-12-14T18:55:24.651Z,56.43
2022-12-14T18:57:54.527Z,56.87
2022-12-14T19:00:25.117Z,57.93
2022-12-14T19:02:54.702Z,60.17
2022-12-14T19:05:26.372Z,55.87
2022-12-14T19:07:55.651Z,56.10
2022-12-14T19:10:27.825Z,48.80
2022-12-14T19:12:57.272Z,58.47
2022-12-14T19:15:27.703Z,61.37
2022-12-14T19:17:56.714Z,61.10
2022-12-14T19:20:25.646Z,65.83
2022-12-14T19:22:54.353Z,58.50
2022-12-14T19:25:23.213Z,66.50
2022-12-14T19:30:44.200Z,66.50
2022-12-14T19:33:12.870Z,71.10
2022-12-14T19:35:42.036Z,71.20
2022-12-14T19:38:14.536Z,79.73
2022-12-14T19:40:46.201Z,73.53
2022-12-14T19:43:16.055Z,71.27
2022-12-14T19:45:47.271Z,66.80
2022-12-14T19:48:15.691Z,70.73
2022-12-14T19:50:44.096Z,72.90
2022-12-14T19:53:23.165Z,97.40
2022-12-14T19:55:53.378Z,74.47
2022-12-14T19:58:25.170Z,68.63
2022-12-14T20:00:53.779Z,56.53
2022-12-14T20:03:22.497Z,52.87
2022-12-14T20:05:52.513Z,56.30
2022-12-14T20:08:21.348Z,56.27
2022-12-14T20:10:52.675Z,60.57
2022-12-14T20:13:22.916Z,51.30
2022-12-14T20:15:51.689Z,45.03
2022-12-14T20:18:20.326Z,49.43
2022-12-14T20:20:49.970Z,53.87
2022-12-14T20:23:19.174Z,56.37
2022-12-14T20:25:48.040Z,56.10
2022-12-14T20:28:16.460Z,60.13
2022-12-14T20:30:48.375Z,58.27
2022-12-14T20:33:17.061Z,55.33
2022-12-14T20:35:45.363Z,72.23
2022-12-14T20:38:13.800Z,50.47
2022-12-14T20:40:42.078Z,55.87
2022-12-14T20:43:10.475Z,44.73
2022-12-14T20:45:39.990Z,44.90
2022-12-14T20:48:10.171Z,50.10
2022-12-14T20:50:40.809Z,65.57
2022-12-14T20:53:09.699Z,57.93
2022-12-14T20:55:38.179Z,53.00
2022-12-14T20:58:06.515Z,65.17
2022-12-14T21:00:35.045Z,63.90
2022-12-14T21:03:05.426Z,71.30
2022-12-14T21:05:39.862Z,68.80
2022-12-14T21:08:08.334Z,66.13
2022-12-14T21:10:37.246Z,57.40
2022-12-14T21:13:07.857Z,54.30
2022-12-14T21:15:36.778Z,48.57
2022-12-14T21:18:05.499Z,49.97
2022-12-14T21:20:35.284Z,43.63
2022-12-14T21:23:03.538Z,44.97
2022-12-14T21:25:32.015Z,41.63
2022-12-14T21:28:00.535Z,48.33
2022-12-14T21:30:29.394Z,40.33
2022-12-14T21:32:58.698Z,43.40
2022-12-14T21:35:27.228Z,46.30
2022-12-14T21:37:57.083Z,46.90
2022-12-14T21:40:43.127Z,49.00
2022-12-14T21:43:13.089Z,42.30
2022-12-14T21:45:41.617Z,42.83
2022-12-14T21:48:10.070Z,50.13
2022-12-14T21:50:38.880Z,44.47
2022-12-14T21:53:08.651Z,47.93
2022-12-14T21:55:37.252Z,51.03
2022-12-14T21:58:16.445Z,43.20
2022-12-14T22:00:45.031Z,42.20
2022-12-14T22:03:13.776Z,64.87
2022-12-14T22:05:42.234Z,50.60
2022-12-14T22:08:11.998Z,49.37
2022-12-14T22:10:40.565Z,53.85
2022-12-14T22:13:09.108Z,49.20
2022-12-14T22:15:37.534Z,50.30
2022-12-14T22:18:05.961Z,48.07
2022-12-14T22:20:34.495Z,43.97
2022-12-14T22:23:03.149Z,48.03
2022-12-14T22:25:32.987Z,44.43
2022-12-14T22:28:01.415Z,45.60
2022-12-14T22:30:32.002Z,45.67
2022-12-14T22:33:00.814Z,44.43
2022-12-14T22:35:29.034Z,44.43
2022-12-14T22:37:57.658Z,45.03
2022-12-14T22:40:26.212Z,45.63
2022-12-14T22:42:55.849Z,42.33
2022-12-14T22:45:24.297Z,37.47
2022-12-14T22:47:52.783Z,37.23
2022-12-14T22:50:21.616Z,36.23
2022-12-14T22:52:49.985Z,37.97
2022-12-14T22:55:18.429Z,32.30
2022-12-14T22:57:48.784Z,36.40
2022-12-14T23:00:18.963Z,36.00
2022-12-14T23:02:48.875Z,33.03
2022-12-14T23:05:17.719Z,32.63
2022-12-14T23:07:45.996Z,33.03
2022-12-14T23:10:31.550Z,31.00
2022-12-14T23:13:17.551Z,34.60
2022-12-14T23:16:04.651Z,34.60
2022-12-14T23:18:50.659Z,37.80
2022-12-14T23:21:36.415Z,42.73
2022-12-14T23:24:22.595Z,41.27
2022-12-14T23:27:09.918Z,40.30
2022-12-14T23:29:56.424Z,42.20
2022-12-14T23:32:43.679Z,41.50
2022-12-14T23:35:29.554Z,39.90
2022-12-14T23:38:15.321Z,42.83
2022-12-14T23:41:00.961Z,40.93
2022-12-14T23:43:46.871Z,38.03
2022-12-14T23:46:32.766Z,39.80
2022-12-14T23:49:20.051Z,42.13
2022-12-14T23:52:06.009Z,44.97
2022-12-14T23:54:51.942Z,40.57
2022-12-14T23:57:37.833Z,37.87
